KSGF/SGF METAR and TAF weather

Enter ICAO airport designator
Station Type Date Time Source
KSGF METAR 2022/01/19 19:52 UTC NOAA

KSGF 191952Z 01021G29KT 10SM OVC070 M01/M07 A3014 RMK AO2 PK WND 36029/1924 SLP213 T10061072


Station Type Date Time Source
KSGF Decoded METAR 2022/01/19 19:52 UTC NOAA

SPRINGFIELD-BRANSON NATIONAL, MO, United States (KSGF) 37-14N 93-23W 389M
Jan 19, 2022 - 02:52 PM EST / 2022.01.19 1952 UTC
Wind: from the N (010 degrees) at 24 MPH (21 KT) gusting to 33 MPH (29 KT):0
Visibility: 10 mile(s):0
Sky conditions: overcast
Temperature: 30.9 F (-0.6 C)
Windchill: 17 F (-8 C):1
Dew Point: 19.0 F (-7.2 C)
Relative Humidity: 60%
Pressure (altimeter): 30.14 in. Hg (1020 hPa)
ob: KSGF 191952Z 01021G29KT 10SM OVC070 M01/M07 A3014 RMK AO2 PK WND 36029/1924 SLP213 T10061072
cycle: 20

Station Type Date Time Source
KSGF TAF 2022/01/19 19:36 UTC NOAA

TAF
AMD KSGF 191832Z 1919/2018 02016G26KT P6SM SCT025 OVC070
TEMPO 1919/1922 4SM -SN BR OVC025
FM192200 01022G30KT P6SM OVC070
FM200400 36020G26KT P6SM FEW250
FM201200 36015KT P6SM BKN250

Example: see airport list